Time;durP1;ratioP1;P1;durP2;ratioP2;P2;SDS_P1;SDS_P2;PMS_P1;PMS_P2;Temp;Humidity;BMP_temperature;BMP_pressure;BME280_temperature;BME280_humidity;BME280_pressure;Samples;Min_cycle;Max_cycle;Signal;HPM_P1;HPM_P2
2021/12/08 00:01:38;;;;;;;1.13;0.90;;;17.40;45.40;;;;;;4982171;28;20280;-23
2021/12/08 00:04:04;;;;;;;1.27;0.90;;;17.40;45.50;;;;;;4963674;28;20212;-24
2021/12/08 00:06:30;;;;;;;1.13;0.90;;;17.40;45.50;;;;;;4981341;28;20266;-21
2021/12/08 00:09:05;;;;;;;1.50;1.00;;;17.40;45.40;;;;;;4981255;28;20217;-23
2021/12/08 00:14:15;;;;;;;1.67;1.00;;;17.40;45.50;;;;;;4981101;28;20250;-22
2021/12/08 00:16:42;;;;;;;1.63;0.90;;;17.40;45.50;;;;;;4980618;28;20187;-24
2021/12/08 00:19:07;;;;;;;3.07;1.00;;;17.40;45.50;;;;;;4981452;28;20202;-23
2021/12/08 00:21:33;;;;;;;1.37;0.90;;;17.40;45.50;;;;;;4963958;28;20206;-25
2021/12/08 00:23:59;;;;;;;1.37;0.70;;;17.30;45.50;;;;;;4980055;28;20265;-22
2021/12/08 00:26:24;;;;;;;1.77;1.00;;;17.40;45.50;;;;;;4963413;28;20206;-25
2021/12/08 00:28:50;;;;;;;1.30;1.00;;;17.40;45.50;;;;;;4980399;28;20222;-21
2021/12/08 00:31:17;;;;;;;2.70;1.00;;;17.30;45.50;;;;;;4963739;28;20529;-22
2021/12/08 00:33:43;;;;;;;1.50;1.10;;;17.30;45.50;;;;;;4981180;28;20227;-24
2021/12/08 00:36:13;;;;;;;1.03;0.90;;;17.30;45.50;;;;;;4964325;28;20512;-21
2021/12/08 00:38:39;;;;;;;2.17;1.00;;;17.30;45.50;;;;;;4980866;28;20185;-25
2021/12/08 00:41:05;;;;;;;1.43;0.90;;;17.30;45.60;;;;;;4980900;28;20447;-25
2021/12/08 00:43:31;;;;;;;1.23;1.00;;;17.30;45.60;;;;;;4980748;28;20199;-23
2021/12/08 00:46:03;;;;;;;1.63;1.13;;;17.30;45.60;;;;;;4979534;28;20580;-26
2021/12/08 00:48:29;;;;;;;1.23;0.97;;;17.30;45.60;;;;;;4963509;28;20220;-22
2021/12/08 00:50:54;;;;;;;1.10;0.77;;;17.30;45.60;;;;;;4963134;28;20300;-25
2021/12/08 00:53:21;;;;;;;0.90;0.90;;;17.20;45.60;;;;;;4963518;28;20206;-24
2021/12/08 00:55:46;;;;;;;1.10;1.00;;;17.20;45.70;;;;;;4963545;28;20197;-22
2021/12/08 00:58:12;;;;;;;1.43;0.80;;;17.30;45.70;;;;;;4980967;28;20208;-22
2021/12/08 01:00:56;;;;;;;1.07;0.73;;;17.20;45.70;;;;;;4963376;28;20206;-25
2021/12/08 01:03:22;;;;;;;1.53;0.90;;;17.20;45.70;;;;;;4963830;28;20203;-26
2021/12/08 01:05:51;;;;;;;2.53;1.20;;;17.20;45.80;;;;;;4979947;28;20479;-26
2021/12/08 01:08:21;;;;;;;1.43;0.93;;;17.10;45.70;;;;;;4962947;28;20222;-27
2021/12/08 01:10:48;;;;;;;1.30;0.90;;;17.10;45.80;;;;;;4979801;28;20196;-26
2021/12/08 01:13:16;;;;;;;1.43;1.00;;;17.10;45.80;;;;;;4962777;28;20250;-26
2021/12/08 01:15:53;;;;;;;1.00;0.80;;;17.10;45.80;;;;;;4979710;28;20200;-25
2021/12/08 01:18:19;;;;;;;1.73;1.10;;;17.00;45.80;;;;;;4980174;28;20211;-23
2021/12/08 01:20:46;;;;;;;0.87;0.80;;;16.90;45.80;;;;;;4979530;28;20204;-21
2021/12/08 01:23:13;;;;;;;1.33;0.90;;;16.90;45.90;;;;;;4979855;28;20228;-22
2021/12/08 01:25:39;;;;;;;1.30;1.00;;;16.90;46.00;;;;;;4962578;28;20189;-23
2021/12/08 01:28:04;;;;;;;1.03;0.90;;;16.90;46.00;;;;;;4963151;28;20196;-24
2021/12/08 01:30:31;;;;;;;1.53;1.00;;;16.80;46.00;;;;;;4962595;28;20637;-26
2021/12/08 01:32:59;;;;;;;1.10;0.90;;;16.80;46.00;;;;;;4962238;28;20201;-24
2021/12/08 01:35:24;;;;;;;0.80;0.80;;;16.80;46.10;;;;;;4979655;28;20291;-24
2021/12/08 01:37:50;;;;;;;1.30;1.00;;;16.80;46.10;;;;;;4962482;28;20314;-23
2021/12/08 01:42:47;;;;;;;1.37;0.87;;;16.80;46.10;;;;;;4996013;28;20617;-73
2021/12/08 01:48:07;;;;;;;1.93;0.97;;;16.80;46.20;;;;;;4992607;28;20292;-73
2021/12/08 01:50:34;;;;;;;1.37;0.80;;;16.70;46.10;;;;;;4981380;28;20559;-73
2021/12/08 01:52:59;;;;;;;1.17;0.90;;;16.70;46.20;;;;;;4997142;28;20207;-73
2021/12/08 01:55:26;;;;;;;1.03;0.93;;;16.70;46.20;;;;;;4980987;28;20214;-73
2021/12/08 01:57:52;;;;;;;1.27;0.90;;;16.70;46.20;;;;;;4980297;28;20616;-73
2021/12/08 02:00:32;;;;;;;1.17;0.90;;;16.70;46.20;;;;;;4997473;28;20601;-73
2021/12/08 02:02:58;;;;;;;1.13;1.03;;;16.70;46.20;;;;;;4981505;28;20210;-73
2021/12/08 02:05:24;;;;;;;0.90;0.80;;;16.70;46.20;;;;;;4981001;28;20206;-73
2021/12/08 02:07:50;;;;;;;1.43;1.00;;;16.70;46.30;;;;;;4980944;28;20241;-73
2021/12/08 02:10:16;;;;;;;1.00;0.93;;;16.70;46.30;;;;;;4981313;28;20308;-73
2021/12/08 02:12:42;;;;;;;1.00;0.80;;;16.70;46.30;;;;;;4989066;28;20247;-71
2021/12/08 02:15:14;;;;;;;1.30;0.80;;;16.70;46.40;;;;;;4998103;28;20206;-73
2021/12/08 02:17:40;;;;;;;2.83;0.80;;;16.60;46.40;;;;;;4996876;28;20206;-74
2021/12/08 02:20:09;;;;;;;2.03;1.00;;;16.60;46.40;;;;;;4980497;28;20320;-74
2021/12/08 02:22:35;;;;;;;1.30;0.90;;;16.60;46.40;;;;;;4989163;23;20270;-24
2021/12/08 02:25:01;;;;;;;1.10;0.90;;;16.60;46.50;;;;;;4977731;28;20437;-24
2021/12/08 02:27:27;;;;;;;0.67;0.67;;;16.60;46.50;;;;;;4978279;28;20202;-23
2021/12/08 02:30:00;;;;;;;1.70;1.00;;;16.60;46.90;;;;;;4978115;28;20231;-23
2021/12/08 02:48:25;;;;;;;1.03;0.90;;;16.30;46.80;;;;;;4978511;28;20286;-24
2021/12/08 02:50:51;;;;;;;2.40;0.90;;;16.30;46.90;;;;;;4961500;28;20197;-21
2021/12/08 02:53:17;;;;;;;0.80;0.80;;;16.30;46.90;;;;;;4961974;28;20487;-20
2021/12/08 02:55:44;;;;;;;1.20;0.90;;;16.30;46.90;;;;;;4978647;28;20214;-24
2021/12/08 02:58:13;;;;;;;1.00;0.70;;;16.20;47.00;;;;;;4978675;28;20245;-22
2021/12/08 03:00:48;;;;;;;1.53;1.13;;;16.20;47.00;;;;;;4978478;28;20199;-24
2021/12/08 03:03:14;;;;;;;0.80;0.80;;;16.20;47.10;;;;;;4978554;28;20274;-23
2021/12/08 03:05:40;;;;;;;1.13;1.03;;;16.20;47.10;;;;;;4978732;28;20555;-24
2021/12/08 03:08:07;;;;;;;1.13;0.90;;;16.20;47.20;;;;;;4978926;28;20203;-24
2021/12/08 03:10:38;;;;;;;1.23;0.90;;;16.10;47.20;;;;;;4978164;28;20229;-20
2021/12/08 03:13:05;;;;;;;0.80;0.70;;;16.10;47.20;;;;;;4978480;28;20522;-26
2021/12/08 03:15:32;;;;;;;1.33;0.90;;;16.10;47.20;;;;;;4961401;28;20264;-20
2021/12/08 03:17:57;;;;;;;1.43;1.07;;;16.00;47.30;;;;;;4978559;28;20195;-25
2021/12/08 03:20:37;;;;;;;0.70;0.70;;;16.00;47.30;;;;;;4961341;28;20472;-21
2021/12/08 03:23:05;;;;;;;0.77;0.77;;;16.00;47.40;;;;;;4978477;28;20180;-23
2021/12/08 03:25:37;;;;;;;0.87;0.70;;;15.90;47.40;;;;;;4961345;28;20650;-23
2021/12/08 03:28:12;;;;;;;1.40;0.93;;;16.00;47.50;;;;;;4978054;28;20496;-22
2021/12/08 03:30:51;;;;;;;0.80;0.80;;;15.90;47.50;;;;;;4961393;28;20229;-25
2021/12/08 03:33:17;;;;;;;1.00;0.90;;;15.90;47.60;;;;;;4978162;28;20539;-22
2021/12/08 03:35:44;;;;;;;1.13;0.90;;;15.90;47.60;;;;;;4961360;28;20336;-24
2021/12/08 03:38:09;;;;;;;0.70;0.70;;;15.80;47.60;;;;;;4961456;28;20270;-25
2021/12/08 03:40:35;;;;;;;1.10;0.77;;;15.80;47.60;;;;;;4978234;28;20278;-23
2021/12/08 03:43:01;;;;;;;2.30;0.90;;;15.80;47.70;;;;;;4962813;28;20285;-23
2021/12/08 03:45:34;;;;;;;1.70;0.90;;;15.80;47.80;;;;;;4981675;28;20175;-23
2021/12/08 03:48:05;;;;;;;1.33;0.93;;;15.70;47.80;;;;;;4964493;28;20208;-24
2021/12/08 03:50:36;;;;;;;0.90;0.80;;;15.70;47.90;;;;;;4980962;28;20226;-26
2021/12/08 03:53:02;;;;;;;0.77;0.70;;;15.70;47.90;;;;;;4981655;28;20203;-26
2021/12/08 03:55:27;;;;;;;1.17;0.80;;;15.60;47.90;;;;;;4981765;28;20297;-24
2021/12/08 03:57:54;;;;;;;1.27;0.97;;;15.60;48.00;;;;;;4981421;28;20217;-24
2021/12/08 04:00:23;;;;;;;1.20;0.80;;;15.60;48.00;;;;;;4981090;28;20402;-25
2021/12/08 04:02:49;;;;;;;1.73;0.83;;;15.60;48.10;;;;;;4981118;28;20302;-22
2021/12/08 04:05:21;;;;;;;1.40;0.80;;;15.60;48.10;;;;;;4981385;28;20559;-20
2021/12/08 04:07:52;;;;;;;0.80;0.80;;;15.90;48.30;;;;;;4981194;28;20194;-21
2021/12/08 04:10:20;;;;;;;0.73;0.73;;;18.50;45.80;;;;;;4964054;28;20500;-23
2021/12/08 04:12:50;;;;;;;1.03;0.93;;;19.10;43.80;;;;;;4981023;28;20529;-21
2021/12/08 04:15:25;;;;;;;1.10;0.90;;;19.30;43.20;;;;;;4980679;28;20203;-24
2021/12/08 04:17:53;;;;;;;1.60;0.90;;;19.40;43.00;;;;;;4981145;28;20494;-24
2021/12/08 04:20:23;;;;;;;0.77;0.73;;;19.70;42.80;;;;;;4981090;28;20532;-26
2021/12/08 04:22:57;;;;;;;1.03;0.80;;;19.90;42.60;;;;;;4980628;28;20203;-22
2021/12/08 04:25:30;;;;;;;1.17;0.80;;;20.10;42.30;;;;;;4980747;28;20194;-25
2021/12/08 04:27:59;;;;;;;1.13;0.80;;;20.60;41.90;;;;;;4980378;28;20497;-23
2021/12/08 04:30:30;;;;;;;0.97;0.90;;;20.90;41.60;;;;;;4962830;28;20215;-25
2021/12/08 04:32:56;;;;;;;0.93;0.90;;;21.40;41.10;;;;;;4980734;28;20211;-24
2021/12/08 04:35:27;;;;;;;1.00;0.77;;;21.80;40.70;;;;;;4963511;28;20207;-24
2021/12/08 04:37:56;;;;;;;1.57;0.80;;;21.80;40.50;;;;;;4963692;28;20245;-25
2021/12/08 04:46:22;;;;;;;0.77;0.77;;;22.00;40.50;;;;;;4937345;28;20296;-21
2021/12/08 05:05:19;;;;;;;1.00;0.90;;;22.50;40.20;;;;;;4979793;28;20191;-26
2021/12/08 05:08:11;;;;;;;0.70;0.70;;;22.40;40.20;;;;;;4963362;28;20201;-24
2021/12/08 05:10:37;;;;;;;0.90;0.70;;;22.40;40.30;;;;;;4962916;28;20225;-23
2021/12/08 05:13:09;;;;;;;1.00;0.90;;;22.40;40.30;;;;;;4979443;28;20193;-26
2021/12/08 05:15:49;;;;;;;0.93;0.80;;;22.60;40.30;;;;;;4979644;28;20285;-24
2021/12/08 05:18:18;;;;;;;1.23;0.90;;;22.60;40.20;;;;;;4962904;28;20272;-24
2021/12/08 05:21:07;;;;;;;1.00;0.90;;;22.70;40.20;;;;;;4978977;28;20187;-21
2021/12/08 05:24:03;;;;;;;1.47;0.80;;;22.60;40.20;;;;;;4979254;28;20248;-22
2021/12/08 05:26:41;;;;;;;2.00;0.90;;;22.70;40.20;;;;;;4979236;28;20285;-23
2021/12/08 05:29:21;;;;;;;1.30;0.80;;;22.70;40.20;;;;;;4979245;28;20201;-23
2021/12/08 05:31:49;;;;;;;2.07;1.03;;;22.80;40.10;;;;;;4978961;28;20234;-24
2021/12/08 05:34:15;;;;;;;0.73;0.73;;;22.60;40.20;;;;;;4978938;28;20681;-26
2021/12/08 05:36:41;;;;;;;0.77;0.60;;;22.50;40.30;;;;;;4962351;28;20206;-24
2021/12/08 05:39:12;;;;;;;0.77;0.77;;;22.40;40.40;;;;;;4962051;28;20202;-23
2021/12/08 05:41:41;;;;;;;0.80;0.80;;;22.10;40.70;;;;;;4979005;28;20569;-23
2021/12/08 05:44:09;;;;;;;1.00;0.80;;;21.90;40.90;;;;;;4962050;28;20232;-26
2021/12/08 05:46:42;;;;;;;0.70;0.70;;;21.80;41.10;;;;;;4978641;28;20204;-25
2021/12/08 05:49:11;;;;;;;0.63;0.63;;;21.70;41.20;;;;;;4978566;28;20563;-24
2021/12/08 05:51:50;;;;;;;0.80;0.70;;;21.70;41.30;;;;;;4978470;28;20285;-23
2021/12/08 05:54:30;;;;;;;1.07;0.90;;;21.50;41.40;;;;;;4978358;28;20226;-24
2021/12/08 05:57:00;;;;;;;0.80;0.80;;;21.30;41.60;;;;;;4978139;28;20225;-23
2021/12/08 05:59:27;;;;;;;1.33;1.00;;;21.10;41.80;;;;;;4960811;28;20307;-23
2021/12/08 06:01:58;;;;;;;1.13;0.83;;;21.10;41.90;;;;;;4977559;28;20212;-23
2021/12/08 06:04:26;;;;;;;1.73;0.90;;;21.10;41.90;;;;;;4978502;28;20607;-21
2021/12/08 06:06:53;;;;;;;1.33;1.00;;;21.20;41.80;;;;;;4977348;28;20304;-24
2021/12/08 06:09:21;;;;;;;0.80;0.80;;;21.20;41.80;;;;;;4978026;28;20497;-22
2021/12/08 06:11:49;;;;;;;1.07;0.97;;;21.80;41.50;;;;;;4960993;28;20249;-25
2021/12/08 06:14:19;;;;;;;1.27;0.97;;;22.50;40.80;;;;;;4978146;28;20205;-23
2021/12/08 06:16:47;;;;;;;1.00;0.80;;;23.10;40.10;;;;;;4977262;28;20236;-27
2021/12/08 06:19:15;;;;;;;1.37;0.90;;;23.00;40.00;;;;;;4977144;28;20629;-22
2021/12/08 06:21:42;;;;;;;1.47;0.90;;;23.00;40.00;;;;;;4977690;28;20248;-23
2021/12/08 06:24:11;;;;;;;0.87;0.80;;;23.20;40.30;;;;;;4977439;28;20198;-24
2021/12/08 06:26:37;;;;;;;1.00;0.90;;;23.00;39.90;;;;;;4977444;28;20621;-23
2021/12/08 06:29:05;;;;;;;0.80;0.80;;;23.00;40.50;;;;;;4977708;28;20583;-22
2021/12/08 06:31:33;;;;;;;0.80;0.80;;;22.90;40.10;;;;;;4959140;28;20733;-23
2021/12/08 06:33:59;;;;;;;1.73;1.10;;;22.80;40.20;;;;;;4977231;28;20205;-23
2021/12/08 06:36:30;;;;;;;1.60;1.03;;;22.90;40.20;;;;;;4977329;28;20233;-23
2021/12/08 06:38:57;;;;;;;1.07;0.70;;;23.00;40.20;;;;;;4960067;28;20697;-24
2021/12/08 06:41:31;;;;;;;1.90;0.90;;;23.10;40.10;;;;;;4960127;28;20202;-24
2021/12/08 06:44:04;;;;;;;1.30;0.90;;;22.90;40.20;;;;;;4976269;28;20198;-22
2021/12/08 06:46:30;;;;;;;1.93;1.27;;;22.80;40.30;;;;;;4976921;28;20198;-24
2021/12/08 06:48:58;;;;;;;2.03;1.00;;;22.90;40.20;;;;;;4976727;28;20285;-24
2021/12/08 06:51:38;;;;;;;1.03;0.90;;;22.90;40.30;;;;;;4976355;28;20213;-21
2021/12/08 06:54:11;;;;;;;1.77;1.10;;;22.90;40.30;;;;;;4955637;28;20282;-24
2021/12/08 06:56:41;;;;;;;3.40;1.30;;;22.90;40.40;;;;;;4960080;28;20201;-24
2021/12/08 06:59:12;;;;;;;4.00;1.60;;;22.80;40.70;;;;;;4976873;28;20189;-22
2021/12/08 07:06:58;;;;;;;4.50;1.47;;;22.80;40.80;;;;;;4976800;28;20569;-24
2021/12/08 07:09:36;;;;;;;4.03;1.30;;;23.00;40.80;;;;;;4976209;28;20209;-24
2021/12/08 07:12:19;;;;;;;3.07;1.30;;;22.90;40.80;;;;;;4976395;28;20210;-24
2021/12/08 07:14:57;;;;;;;4.50;1.40;;;22.60;41.00;;;;;;4959869;28;20210;-24
2021/12/08 07:17:27;;;;;;;4.67;1.57;;;22.70;41.00;;;;;;4960544;28;20297;-24
2021/12/08 07:20:13;;;;;;;4.73;1.77;;;22.70;41.00;;;;;;4963460;28;20246;-23
2021/12/08 07:22:40;;;;;;;5.33;1.83;;;22.80;41.00;;;;;;4980026;28;20197;-22
2021/12/08 07:25:06;;;;;;;3.80;1.40;;;22.90;40.90;;;;;;4979593;28;20214;-23
2021/12/08 07:27:36;;;;;;;4.60;1.67;;;23.10;40.80;;;;;;4982313;28;20612;-25
2021/12/08 07:30:08;;;;;;;8.97;2.03;;;23.30;40.60;;;;;;5000001;28;20214;-24
2021/12/08 07:32:36;;;;;;;5.00;1.53;;;23.40;40.50;;;;;;4999970;28;20579;-23
2021/12/08 07:35:09;;;;;;;5.80;1.80;;;23.70;40.20;;;;;;4999724;28;20177;-23
2021/12/08 07:37:37;;;;;;;6.97;1.73;;;24.00;39.90;;;;;;4998928;28;20268;-22
2021/12/08 07:40:43;;;;;;;6.00;1.80;;;24.00;40.00;;;;;;4999318;28;20212;-25
2021/12/08 07:43:13;;;;;;;4.60;1.63;;;23.90;40.30;;;;;;4941396;28;20213;-25
2021/12/08 07:45:45;;;;;;;5.20;1.73;;;23.90;40.20;;;;;;4981747;28;20201;-25
2021/12/08 07:48:16;;;;;;;4.43;1.60;;;23.90;40.20;;;;;;4999138;28;20206;-23
2021/12/08 07:50:49;;;;;;;3.87;1.30;;;23.80;40.30;;;;;;4998120;28;20226;-20
2021/12/08 07:53:20;;;;;;;5.33;1.50;;;23.50;40.50;;;;;;4982162;28;20206;-24
2021/12/08 07:55:51;;;;;;;3.50;1.40;;;23.30;40.70;;;;;;4998714;28;20205;-21
2021/12/08 07:58:20;;;;;;;7.63;1.60;;;23.10;40.90;;;;;;4999050;28;20232;-25
2021/12/08 08:00:48;;;;;;;3.47;1.27;;;22.90;41.10;;;;;;4999365;28;20464;-27
2021/12/08 08:03:20;;;;;;;4.63;1.40;;;22.70;41.30;;;;;;4982074;28;20240;-22
2021/12/08 08:05:48;;;;;;;6.33;1.60;;;22.70;41.40;;;;;;4981981;28;20586;-23
2021/12/08 08:08:15;;;;;;;3.27;1.40;;;22.70;41.40;;;;;;4998988;28;20264;-24
2021/12/08 08:10:51;;;;;;;4.60;1.80;;;22.80;41.70;;;;;;4998478;28;20249;-22
2021/12/08 08:13:18;;;;;;;2.90;1.53;;;22.70;41.30;;;;;;4981891;28;20244;-24
2021/12/08 08:15:48;;;;;;;2.33;1.43;;;22.60;41.50;;;;;;4999096;28;20510;-22
2021/12/08 08:18:23;;;;;;;4.93;1.53;;;22.70;41.50;;;;;;4980634;28;20194;-23
2021/12/08 08:20:51;;;;;;;2.63;1.50;;;22.80;41.40;;;;;;4981400;28;20193;-23
2021/12/08 08:23:21;;;;;;;2.13;1.30;;;22.70;41.40;;;;;;4998239;28;20205;-22
2021/12/08 08:25:49;;;;;;;4.37;1.43;;;22.70;41.90;;;;;;4980987;28;20206;-23
2021/12/08 08:28:16;;;;;;;3.70;1.77;;;22.60;41.50;;;;;;4997873;28;20304;-24
2021/12/08 08:31:07;;;;;;;2.27;1.30;;;22.50;41.60;;;;;;4978345;28;20251;-23
2021/12/08 08:33:35;;;;;;;2.70;1.30;;;22.50;41.60;;;;;;4975083;28;20182;-22
2021/12/08 08:36:07;;;;;;;2.47;1.30;;;22.70;41.60;;;;;;4992125;28;20227;-27
2021/12/08 08:38:47;;;;;;;3.80;1.37;;;22.80;41.40;;;;;;4975128;28;20296;-25
2021/12/08 08:41:22;;;;;;;1.80;1.30;;;23.00;41.30;;;;;;4992245;28;20210;-21
2021/12/08 08:43:50;;;;;;;3.00;1.30;;;23.20;41.10;;;;;;4974114;28;20198;-24
2021/12/08 08:46:21;;;;;;;4.73;1.60;;;23.40;40.90;;;;;;4992816;28;20246;-24
2021/12/08 08:48:51;;;;;;;2.20;1.37;;;23.70;40.60;;;;;;4994127;28;20209;-23
2021/12/08 08:51:39;;;;;;;3.93;1.10;;;23.80;40.40;;;;;;4977028;28;20238;-25
2021/12/08 08:54:33;;;;;;;2.87;1.20;;;23.80;40.40;;;;;;4993018;28;20483;-21
2021/12/08 08:57:23;;;;;;;2.47;1.40;;;23.50;40.50;;;;;;4990835;28;20655;-23
2021/12/08 09:00:10;;;;;;;3.37;1.60;;;23.30;40.70;;;;;;4974628;28;20244;-24
2021/12/08 09:02:38;;;;;;;1.60;1.13;;;22.90;41.10;;;;;;4973799;28;20264;-25
2021/12/08 09:05:19;;;;;;;2.07;1.10;;;22.60;41.40;;;;;;4975336;28;20179;-25
2021/12/08 09:07:49;;;;;;;4.97;1.20;;;22.40;41.70;;;;;;4967452;28;20213;-23
2021/12/08 09:10:27;;;;;;;2.73;1.40;;;22.30;41.80;;;;;;4974494;28;20491;-22
2021/12/08 09:13:05;;;;;;;1.50;1.03;;;22.40;41.90;;;;;;4974434;28;20261;-24
2021/12/08 09:15:39;;;;;;;1.57;1.23;;;22.60;41.70;;;;;;4993016;28;20642;-22
2021/12/08 09:18:17;;;;;;;2.37;1.10;;;23.30;41.20;;;;;;4991997;28;20438;-25
2021/12/08 09:20:55;;;;;;;1.60;1.20;;;23.60;40.70;;;;;;4996759;28;20200;-23
2021/12/08 09:23:31;;;;;;;2.43;1.27;;;23.60;40.80;;;;;;4979777;28;20209;-25
2021/12/08 09:26:03;;;;;;;1.20;1.00;;;23.80;40.60;;;;;;4980740;28;20236;-22
2021/12/08 09:28:38;;;;;;;1.13;1.00;;;23.80;40.50;;;;;;4997117;28;20202;-26
2021/12/08 09:31:25;;;;;;;1.53;1.17;;;23.70;40.50;;;;;;4997481;28;20201;-23
2021/12/08 09:34:13;;;;;;;3.10;1.20;;;23.60;40.70;;;;;;4997669;28;20453;-25
2021/12/08 09:36:45;;;;;;;1.70;1.27;;;23.60;40.80;;;;;;4979847;28;20186;-24
2021/12/08 09:39:23;;;;;;;1.80;1.20;;;23.50;40.80;;;;;;4979733;28;20264;-24
2021/12/08 09:42:03;;;;;;;1.63;1.20;;;23.40;40.80;;;;;;4996422;28;20205;-23
2021/12/08 09:44:54;;;;;;;1.70;1.10;;;23.30;41.00;;;;;;4996666;28;20201;-25
2021/12/08 09:47:20;;;;;;;2.37;1.20;;;23.20;41.10;;;;;;4995952;28;20214;-23
2021/12/08 09:49:49;;;;;;;1.97;1.10;;;22.90;41.30;;;;;;4996860;28;20210;-25
2021/12/08 09:52:17;;;;;;;2.63;1.30;;;22.90;41.50;;;;;;4996846;28;20201;-24
2021/12/08 09:54:44;;;;;;;1.67;1.10;;;22.70;41.60;;;;;;4996872;28;20162;-23
2021/12/08 09:57:13;;;;;;;1.60;1.20;;;22.70;41.70;;;;;;4979518;28;20597;-23
2021/12/08 09:59:46;;;;;;;2.47;1.20;;;22.60;41.80;;;;;;4996734;28;20182;-24
2021/12/08 10:02:30;;;;;;;1.70;1.13;;;22.50;42.00;;;;;;4979198;28;20213;-24
2021/12/08 10:05:02;;;;;;;2.30;1.40;;;22.40;42.00;;;;;;4979367;28;20579;-25
2021/12/08 10:07:28;;;;;;;3.27;1.23;;;22.20;42.20;;;;;;4996366;28;20611;-24
2021/12/08 10:09:54;;;;;;;2.30;1.20;;;22.20;42.30;;;;;;4996329;28;20321;-22
2021/12/08 10:12:20;;;;;;;2.03;1.10;;;22.10;42.50;;;;;;4979633;28;20210;-22
2021/12/08 10:14:46;;;;;;;2.03;1.30;;;21.90;42.60;;;;;;4996459;28;20205;-26
2021/12/08 10:17:14;;;;;;;2.60;1.20;;;21.60;42.80;;;;;;4995782;28;20179;-25
2021/12/08 10:19:41;;;;;;;1.63;1.03;;;21.30;43.00;;;;;;4996246;28;20571;-22
2021/12/08 10:22:21;;;;;;;1.80;1.10;;;21.40;43.20;;;;;;4995867;28;20285;-26
2021/12/08 10:25:19;;;;;;;2.00;1.10;;;21.50;43.20;;;;;;4996493;28;20194;-25
2021/12/08 10:28:09;;;;;;;2.20;1.07;;;21.70;43.10;;;;;;4978449;28;20739;-24
2021/12/08 10:30:41;;;;;;;1.20;0.90;;;22.20;42.70;;;;;;4972937;28;20344;-24
2021/12/08 10:33:34;;;;;;;1.30;1.00;;;22.70;42.10;;;;;;4971609;28;20599;-22
2021/12/08 10:36:05;;;;;;;1.30;1.10;;;23.20;41.50;;;;;;4989822;28;20193;-22
2021/12/08 10:38:39;;;;;;;2.13;1.20;;;23.50;41.20;;;;;;4971986;28;20280;-25
2021/12/08 10:41:07;;;;;;;1.57;1.10;;;23.60;41.00;;;;;;4984423;28;20208;-23
2021/12/08 10:43:33;;;;;;;1.60;1.20;;;23.80;40.90;;;;;;4972665;28;20195;-22
2021/12/08 10:46:08;;;;;;;1.10;1.00;;;23.90;40.70;;;;;;4971641;28;20194;-23
2021/12/08 10:48:44;;;;;;;1.57;1.10;;;23.70;40.80;;;;;;4971856;28;20201;-23
2021/12/08 10:54:27;;;;;;;2.37;1.30;;;23.30;41.10;;;;;;4994024;28;20204;-24
2021/12/08 10:56:57;;;;;;;1.50;1.10;;;23.30;41.30;;;;;;4992899;28;20186;-25
2021/12/08 10:59:28;;;;;;;2.67;1.23;;;23.30;41.30;;;;;;4975447;28;20198;-25
2021/12/08 11:01:59;;;;;;;1.80;1.20;;;23.30;41.30;;;;;;4993346;28;20199;-23
2021/12/08 11:04:34;;;;;;;1.43;0.83;;;23.30;41.40;;;;;;4993409;28;20178;-24
2021/12/08 11:07:04;;;;;;;1.83;1.20;;;23.20;41.50;;;;;;4976017;28;20248;-24
2021/12/08 11:09:40;;;;;;;2.17;1.07;;;23.10;41.50;;;;;;4992578;28;20380;-24
2021/12/08 11:12:06;;;;;;;1.70;1.03;;;23.20;41.50;;;;;;4992919;28;20530;-23
2021/12/08 11:14:50;;;;;;;2.20;1.23;;;23.10;41.50;;;;;;4992518;28;20225;-23
2021/12/08 11:17:30;;;;;;;2.37;1.20;;;23.00;41.70;;;;;;4993032;28;20272;-24
2021/12/08 11:20:17;;;;;;;1.97;1.40;;;22.90;41.80;;;;;;4975094;28;20205;-24
2021/12/08 11:22:46;;;;;;;1.60;1.10;;;22.80;42.10;;;;;;4974361;28;20374;-24
2021/12/08 11:25:23;;;;;;;1.83;1.60;;;22.60;42.20;;;;;;4973512;28;20198;-23
2021/12/08 11:27:49;;;;;;;2.20;1.47;;;22.40;42.40;;;;;;4974186;28;20205;-26
2021/12/08 11:30:21;;;;;;;2.63;1.60;;;22.30;42.60;;;;;;4991711;28;20228;-25
2021/12/08 11:32:47;;;;;;;2.40;1.60;;;22.20;42.80;;;;;;4974760;28;20189;-24
2021/12/08 11:35:21;;;;;;;1.87;1.40;;;22.10;42.80;;;;;;4992282;28;20212;-24
2021/12/08 11:38:00;;;;;;;2.20;1.70;;;22.20;42.90;;;;;;4991054;28;20212;-25
2021/12/08 11:40:26;;;;;;;4.13;1.90;;;22.30;43.10;;;;;;4975473;28;20301;-23
2021/12/08 11:42:52;;;;;;;3.20;1.60;;;22.30;43.10;;;;;;4990852;28;20211;-26
2021/12/08 11:45:19;;;;;;;6.33;1.83;;;22.30;42.90;;;;;;4991643;28;20449;-22
2021/12/08 11:47:44;;;;;;;2.83;1.50;;;22.50;42.70;;;;;;4974206;28;20194;-23
2021/12/08 11:50:16;;;;;;;4.60;1.87;;;22.50;42.50;;;;;;4993295;28;20504;-23
2021/12/08 11:52:42;;;;;;;3.43;1.70;;;22.70;42.40;;;;;;4976099;28;20208;-23
2021/12/08 11:55:12;;;;;;;3.20;2.03;;;22.70;42.10;;;;;;4974344;28;20198;-23
2021/12/08 11:57:40;;;;;;;2.57;1.70;;;22.70;42.10;;;;;;4989699;28;20217;-23
2021/12/08 12:00:11;;;;;;;3.23;1.53;;;22.70;42.00;;;;;;4973802;28;20201;-22
2021/12/08 12:02:36;;;;;;;3.63;1.77;;;22.50;42.00;;;;;;4973678;28;20198;-25
2021/12/08 12:05:09;;;;;;;3.17;1.67;;;22.80;41.90;;;;;;4974190;28;20478;-23
2021/12/08 12:07:35;;;;;;;2.40;1.50;;;22.90;41.70;;;;;;4991976;28;20490;-27
2021/12/08 12:10:02;;;;;;;3.90;1.80;;;23.10;41.60;;;;;;4973206;28;20217;-25
2021/12/08 12:12:28;;;;;;;2.77;1.80;;;23.10;41.40;;;;;;4990719;28;20201;-23
2021/12/08 12:14:54;;;;;;;3.23;1.50;;;23.10;41.40;;;;;;4991340;28;20205;-24
2021/12/08 12:17:19;;;;;;;2.83;1.40;;;23.00;41.30;;;;;;4973020;28;20467;-24
2021/12/08 12:20:16;;;;;;;4.03;1.60;;;22.90;41.50;;;;;;4991487;28;20198;-24
2021/12/08 12:22:59;;;;;;;3.40;1.60;;;22.60;41.70;;;;;;4991019;28;20186;-25
2021/12/08 12:25:32;;;;;;;3.90;1.80;;;22.30;42.00;;;;;;4974364;28;20178;-25
2021/12/08 12:28:26;;;;;;;3.43;1.50;;;22.10;42.30;;;;;;4967971;28;20205;-23
2021/12/08 12:31:21;;;;;;;2.60;1.67;;;21.90;42.60;;;;;;4989718;28;20372;-25
2021/12/08 12:33:49;;;;;;;2.73;1.57;;;21.50;42.80;;;;;;4973152;28;20314;-24
2021/12/08 12:36:34;;;;;;;5.10;1.90;;;21.20;43.30;;;;;;4973172;28;20298;-25
2021/12/08 12:39:15;;;;;;;3.43;1.50;;;20.70;44.10;;;;;;4990937;28;20261;-22
2021/12/08 12:41:41;;;;;;;2.73;1.50;;;20.90;43.90;;;;;;4989687;28;20190;-24
2021/12/08 12:44:24;;;;;;;3.67;1.87;;;21.60;43.60;;;;;;4972890;28;20208;-25
2021/12/08 12:49:32;;;;;;;1.83;1.30;;;23.70;41.20;;;;;;4990192;28;20220;-25
2021/12/08 12:52:00;;;;;;;5.33;1.83;;;23.90;40.90;;;;;;4990694;28;20458;-25
2021/12/08 12:54:26;;;;;;;3.90;1.50;;;23.90;40.90;;;;;;4991266;28;20198;-23
2021/12/08 12:56:53;;;;;;;2.73;1.53;;;23.80;40.90;;;;;;4973129;28;20254;-23
2021/12/08 12:59:23;;;;;;;2.13;1.40;;;23.70;40.90;;;;;;4992261;28;20197;-22
2021/12/08 13:02:23;;;;;;;3.23;1.50;;;23.60;41.00;;;;;;4972402;28;20190;-24
2021/12/08 13:04:58;;;;;;;2.47;1.30;;;23.80;41.10;;;;;;4973031;28;20202;-22
2021/12/08 13:07:25;;;;;;;3.67;1.60;;;23.60;41.30;;;;;;4972945;28;20270;-24
2021/12/08 13:09:56;;;;;;;2.20;1.30;;;23.60;41.30;;;;;;4973823;28;20313;-24
2021/12/08 13:12:26;;;;;;;3.67;1.60;;;23.70;41.40;;;;;;4991207;28;20579;-24
2021/12/08 13:15:33;;;;;;;2.50;1.50;;;23.70;41.30;;;;;;4989262;28;20230;-24
2021/12/08 13:18:16;;;;;;;2.80;1.30;;;23.60;41.40;;;;;;4982657;28;20372;-26
2021/12/08 13:20:58;;;;;;;2.10;1.23;;;23.40;41.60;;;;;;4985528;28;20600;-23
2021/12/08 13:23:30;;;;;;;3.13;1.40;;;23.20;41.80;;;;;;4984870;28;20279;-22
2021/12/08 13:26:11;;;;;;;3.47;1.70;;;23.00;42.00;;;;;;4970116;28;20233;-25
2021/12/08 13:28:52;;;;;;;2.93;1.40;;;22.80;42.10;;;;;;4985408;28;20259;-26
2021/12/08 13:34:04;;;;;;;2.17;1.40;;;22.40;42.50;;;;;;4988833;28;20197;-23
2021/12/08 13:36:34;;;;;;;2.67;1.40;;;22.20;42.80;;;;;;4979961;28;20210;-24
2021/12/08 13:39:17;;;;;;;4.97;1.50;;;22.00;43.00;;;;;;4976305;28;20538;-23
2021/12/08 13:42:09;;;;;;;3.23;1.43;;;21.80;43.20;;;;;;4989046;28;20205;-21
2021/12/08 13:44:38;;;;;;;2.20;1.50;;;21.60;43.50;;;;;;4988550;28;20594;-24
2021/12/08 13:47:09;;;;;;;2.40;1.40;;;21.40;43.70;;;;;;4970953;28;20303;-26
2021/12/08 13:49:51;;;;;;;3.57;1.40;;;21.30;43.90;;;;;;4990383;28;20247;-25
2021/12/08 13:52:23;;;;;;;2.33;1.10;;;21.00;44.10;;;;;;4988069;28;20227;-24
2021/12/08 13:54:52;;;;;;;2.00;1.30;;;20.90;44.30;;;;;;4970772;28;20288;-23
2021/12/08 13:57:42;;;;;;;3.10;1.40;;;20.90;44.40;;;;;;4987350;28;20193;-21
2021/12/08 14:00:12;;;;;;;2.87;1.50;;;21.00;44.30;;;;;;4969946;28;20559;-23
2021/12/08 14:02:37;;;;;;;2.67;1.50;;;21.30;44.10;;;;;;4971670;28;20190;-24
2021/12/08 14:05:31;;;;;;;2.70;1.33;;;21.90;43.60;;;;;;4996883;28;20211;-24
2021/12/08 14:08:05;;;;;;;2.40;1.20;;;22.80;42.80;;;;;;4989927;28;20496;-25
2021/12/08 14:10:36;;;;;;;1.63;1.10;;;23.50;41.90;;;;;;4990289;28;20250;-25
2021/12/08 14:13:15;;;;;;;2.60;1.30;;;24.10;41.20;;;;;;4978292;28;20260;-23